createdAt,value
2022-10-05T00:00:55.200Z,36.62
2022-10-05T00:03:11.040Z,37.37
2022-10-05T00:05:34.085Z,36.65
2022-10-05T00:06:37.626Z,36.04
2022-10-05T00:08:51.821Z,37.01
2022-10-05T00:11:13.368Z,35.66
2022-10-05T00:13:30.886Z,35.43
2022-10-05T00:15:46.942Z,35.60
2022-10-05T00:18:04.316Z,35.49
2022-10-05T00:20:25.566Z,36.24
2022-10-05T00:21:29.128Z,37.16
2022-10-05T00:22:33.665Z,36.21
2022-10-05T00:24:51.747Z,35.38
2022-10-05T00:28:46.101Z,35.41
2022-10-05T00:31:02.229Z,34.65
2022-10-05T00:33:16.359Z,34.72
2022-10-05T00:35:34.312Z,34.23
2022-10-05T00:36:39.394Z,35.45
2022-10-05T00:37:43.748Z,35.02
2022-10-05T00:39:57.922Z,34.73
2022-10-05T00:42:51.853Z,34.59
2022-10-05T00:45:25.861Z,34.68
2022-10-05T00:46:38.988Z,34.58
2022-10-05T00:49:24.593Z,34.54
2022-10-05T00:50:40.372Z,35.16
2022-10-05T00:53:20.313Z,35.59
2022-10-05T00:56:04.505Z,34.65
2022-10-05T00:57:30.576Z,35.36
2022-10-05T01:01:28.840Z,34.43
2022-10-05T01:05:47.903Z,34.65
2022-10-05T01:07:19.499Z,34.51
2022-10-05T01:10:11.000Z,37.47
2022-10-05T01:13:03.216Z,39.41
2022-10-05T01:15:27.535Z,39.28
2022-10-05T01:16:51.549Z,40.24
2022-10-05T01:21:04.865Z,39.41
2022-10-05T01:22:28.834Z,40.31
2022-10-05T01:23:41.822Z,40.21
2022-10-05T01:26:27.342Z,39.28
2022-10-05T01:29:13.054Z,41.52
2022-10-05T01:32:03.525Z,40.14
2022-10-05T01:34:54.916Z,40.47
2022-10-05T01:37:28.694Z,39.67
2022-10-05T01:40:38.799Z,39.64
2022-10-05T01:41:58.278Z,39.52
2022-10-05T01:43:29.693Z,40.01
2022-10-05T01:46:13.159Z,40.72
2022-10-05T01:47:26.456Z,39.80
2022-10-05T01:51:23.705Z,39.85
2022-10-05T01:52:53.792Z,39.45
2022-10-05T01:55:27.732Z,39.33
2022-10-05T01:56:43.871Z,39.02
2022-10-05T01:59:12.440Z,39.44
2022-10-05T02:01:55.185Z,38.57
2022-10-05T02:03:05.436Z,39.35
2022-10-05T02:06:47.453Z,39.19
2022-10-05T02:08:03.687Z,38.52
2022-10-05T02:10:40.531Z,38.61
2022-10-05T02:13:02.276Z,38.56
2022-10-05T02:14:11.291Z,38.16
2022-10-05T02:16:41.410Z,38.55
2022-10-05T02:19:24.497Z,39.02
2022-10-05T02:21:45.025Z,41.01
2022-10-05T02:24:19.127Z,40.47
2022-10-05T02:26:40.036Z,40.30
2022-10-05T02:29:18.354Z,40.32
2022-10-05T02:33:03.992Z,40.10
2022-10-05T02:35:39.412Z,39.71
2022-10-05T02:36:43.472Z,39.71
2022-10-05T02:38:05.644Z,39.92
2022-10-05T02:40:30.396Z,39.59
2022-10-05T02:41:55.358Z,40.80
2022-10-05T02:43:20.237Z,40.64
2022-10-05T02:45:59.519Z,40.87
2022-10-05T02:47:12.068Z,40.86
2022-10-05T02:50:09.807Z,40.94
2022-10-05T02:52:34.550Z,39.78
2022-10-05T02:54:04.134Z,40.47
2022-10-05T02:56:38.489Z,41.07
2022-10-05T02:59:18.332Z,42.43
2022-10-05T03:01:45.048Z,40.58
2022-10-05T03:02:55.156Z,40.69
2022-10-05T03:05:42.912Z,38.58
2022-10-05T03:08:16.683Z,37.58
2022-10-05T03:10:54.126Z,37.18
2022-10-05T03:13:27.427Z,39.16
2022-10-05T03:16:18.971Z,39.24
2022-10-05T03:18:51.956Z,41.09
2022-10-05T03:21:40.483Z,39.90
2022-10-05T03:22:53.518Z,39.54
2022-10-05T03:25:26.752Z,39.90
2022-10-05T03:29:37.356Z,40.22
2022-10-05T03:32:26.876Z,40.87
2022-10-05T03:35:05.254Z,40.32
2022-10-05T03:39:00.947Z,40.26
2022-10-05T03:41:35.287Z,40.88
2022-10-05T03:46:04.450Z,40.27
2022-10-05T03:47:17.859Z,40.45
2022-10-05T03:49:54.742Z,39.92
2022-10-05T03:52:46.719Z,39.71
2022-10-05T03:56:43.644Z,39.34
2022-10-05T03:57:49.605Z,39.88
2022-10-05T04:03:16.440Z,39.62
2022-10-05T04:05:50.576Z,39.25
2022-10-05T04:06:55.890Z,39.46
2022-10-05T04:10:53.676Z,40.06
2022-10-05T04:14:42.086Z,39.73
2022-10-05T04:17:12.946Z,38.98
2022-10-05T04:19:43.628Z,39.17
2022-10-05T04:22:22.342Z,40.00
2022-10-05T04:24:49.455Z,39.77
2022-10-05T04:27:14.035Z,40.82
2022-10-05T04:28:38.991Z,40.44
2022-10-05T04:31:17.953Z,39.73
2022-10-05T04:34:00.052Z,39.03
2022-10-05T04:35:36.005Z,39.10
2022-10-05T04:38:32.980Z,39.00
2022-10-05T04:41:31.346Z,40.31
2022-10-05T04:42:38.360Z,39.77
2022-10-05T04:45:22.729Z,40.22
2022-10-05T04:48:11.918Z,40.57
2022-10-05T04:51:22.824Z,39.68
2022-10-05T04:54:22.576Z,40.39
2022-10-05T05:00:04.334Z,41.81
2022-10-05T05:02:49.909Z,42.05
2022-10-05T05:07:11.724Z,40.84
2022-10-05T05:10:15.980Z,40.79
2022-10-05T05:14:36.337Z,39.88
2022-10-05T05:17:33.347Z,41.08
2022-10-05T05:20:22.776Z,39.94
2022-10-05T05:23:24.965Z,41.11
2022-10-05T05:26:04.919Z,41.23
2022-10-05T05:30:32.564Z,40.50
2022-10-05T05:35:14.528Z,38.94
2022-10-05T05:37:51.484Z,38.63
2022-10-05T05:40:33.875Z,39.31
2022-10-05T05:42:56.112Z,39.28
2022-10-05T05:45:45.532Z,38.86
2022-10-05T05:50:07.460Z,38.89
2022-10-05T05:52:28.949Z,38.79
2022-10-05T05:56:23.480Z,38.01
2022-10-05T05:59:00.744Z,37.58
2022-10-05T06:01:40.724Z,37.25
2022-10-05T06:04:22.499Z,36.89
2022-10-05T06:06:59.725Z,38.42
2022-10-05T06:09:53.893Z,38.18
2022-10-05T06:12:21.685Z,37.73
2022-10-05T06:16:32.105Z,37.16
2022-10-05T06:19:11.851Z,37.38
2022-10-05T06:23:20.790Z,36.69
2022-10-05T06:26:09.759Z,36.82
2022-10-05T06:28:40.884Z,36.73
2022-10-05T06:33:32.638Z,37.04
2022-10-05T06:36:24.781Z,36.07
2022-10-05T06:39:02.480Z,36.73
2022-10-05T06:41:42.216Z,37.13
2022-10-05T06:43:04.126Z,36.81
2022-10-05T06:45:44.389Z,37.32
2022-10-05T06:48:38.364Z,37.09
2022-10-05T06:51:28.453Z,37.16
2022-10-05T06:54:20.799Z,36.78
2022-10-05T06:57:06.138Z,37.22
2022-10-05T07:00:19.794Z,37.85
2022-10-05T07:04:36.932Z,37.82
2022-10-05T07:07:30.298Z,36.48
2022-10-05T07:08:44.395Z,36.42
2022-10-05T07:11:54.678Z,36.36
2022-10-05T07:14:38.737Z,37.01
2022-10-05T07:17:46.957Z,36.69
2022-10-05T07:20:30.248Z,36.88
2022-10-05T07:25:56.658Z,35.93
2022-10-05T07:28:36.250Z,35.54
2022-10-05T07:31:12.822Z,34.99
2022-10-05T07:35:20.100Z,35.11
2022-10-05T07:37:57.991Z,34.95
2022-10-05T07:40:41.533Z,34.73
2022-10-05T07:43:22.127Z,33.70
2022-10-05T07:45:59.424Z,33.92
2022-10-05T07:50:03.926Z,35.13
2022-10-05T07:52:37.082Z,34.89
2022-10-05T07:54:59.573Z,35.08
2022-10-05T07:57:48.717Z,36.22
2022-10-05T08:01:25.942Z,35.23
2022-10-05T08:04:13.001Z,34.87
2022-10-05T08:06:53.615Z,35.51
2022-10-05T08:10:52.412Z,34.92
2022-10-05T08:13:20.068Z,34.53
2022-10-05T08:15:43.715Z,35.21
2022-10-05T08:19:26.631Z,35.09
2022-10-05T08:22:07.240Z,36.41
2022-10-05T08:23:18.887Z,37.57
2022-10-05T08:25:46.363Z,34.70
2022-10-05T08:29:54.946Z,33.85
2022-10-05T08:32:22.489Z,33.18
2022-10-05T08:34:51.892Z,33.36
2022-10-05T08:37:19.525Z,32.99
2022-10-05T08:40:07.743Z,32.91
2022-10-05T08:42:58.553Z,32.63
2022-10-05T08:46:02.781Z,34.58
2022-10-05T08:48:57.830Z,32.77
2022-10-05T08:51:49.706Z,32.90
2022-10-05T08:54:39.649Z,32.65
2022-10-05T09:02:01.109Z,31.89
2022-10-05T09:05:10.483Z,31.16
2022-10-05T09:08:30.564Z,30.41
2022-10-05T09:13:24.873Z,31.48
2022-10-05T09:15:58.714Z,31.60
2022-10-05T09:17:22.575Z,31.23
2022-10-05T09:20:05.695Z,31.25
2022-10-05T09:21:30.625Z,31.53
2022-10-05T09:23:50.926Z,31.29
2022-10-05T09:26:33.943Z,32.32
2022-10-05T09:29:10.213Z,31.60
2022-10-05T09:32:00.340Z,32.39
2022-10-05T09:33:36.319Z,32.40
2022-10-05T09:38:08.704Z,32.02
2022-10-05T09:41:05.397Z,32.13
2022-10-05T09:43:53.045Z,30.63
2022-10-05T09:46:56.615Z,29.94
2022-10-05T09:55:40.245Z,30.84
2022-10-05T09:58:57.528Z,31.22
2022-10-05T10:01:33.683Z,31.20
2022-10-05T10:04:15.167Z,31.51
2022-10-05T10:08:09.305Z,31.66
2022-10-05T10:12:40.566Z,30.64
2022-10-05T10:15:34.134Z,30.47
2022-10-05T10:19:14.597Z,30.23
2022-10-05T10:22:07.525Z,29.85
2022-10-05T10:25:22.595Z,29.07
2022-10-05T10:28:17.991Z,29.65
2022-10-05T10:31:03.005Z,28.85
2022-10-05T10:34:11.918Z,29.64
2022-10-05T10:36:49.625Z,29.29
2022-10-05T10:41:05.976Z,29.60
2022-10-05T10:44:00.109Z,29.87
2022-10-05T10:46:58.297Z,31.38
2022-10-05T10:51:21.196Z,31.26
2022-10-05T10:54:06.053Z,29.93
2022-10-05T10:59:57.220Z,29.32
2022-10-05T11:02:22.632Z,29.06
2022-10-05T11:04:53.071Z,28.38
2022-10-05T11:07:37.164Z,28.27
2022-10-05T11:10:33.378Z,28.18
2022-10-05T11:14:54.360Z,28.10
2022-10-05T11:17:46.797Z,28.05
2022-10-05T11:21:00.569Z,27.79
2022-10-05T11:23:51.377Z,29.04
2022-10-05T11:26:52.572Z,29.56
2022-10-05T11:29:59.215Z,29.73
2022-10-05T11:35:14.534Z,29.53
2022-10-05T11:38:03.624Z,28.98
2022-10-05T11:40:52.918Z,29.91
2022-10-05T11:44:04.606Z,29.28
2022-10-05T11:46:44.878Z,29.11
2022-10-05T11:49:54.108Z,28.83
2022-10-05T11:52:41.507Z,29.46
2022-10-05T11:55:16.455Z,29.14
2022-10-05T11:59:12.270Z,29.96
2022-10-05T12:00:19.236Z,29.25
2022-10-05T12:03:21.710Z,29.87
2022-10-05T12:06:04.810Z,29.75
2022-10-05T12:13:12.231Z,28.93
2022-10-05T12:16:04.683Z,29.30
2022-10-05T12:18:54.748Z,29.29
2022-10-05T12:24:03.571Z,30.54
2022-10-05T12:26:50.466Z,29.64
2022-10-05T12:29:37.057Z,30.17
2022-10-05T12:30:57.928Z,29.94
2022-10-05T12:33:22.531Z,29.60
2022-10-05T12:36:20.912Z,29.41
2022-10-05T12:40:34.750Z,29.05
2022-10-05T12:43:22.824Z,30.37
2022-10-05T12:47:40.702Z,29.01
2022-10-05T12:50:19.776Z,29.36
2022-10-05T12:53:09.177Z,29.80
2022-10-05T12:56:02.489Z,30.12
2022-10-05T13:00:11.363Z,29.53
2022-10-05T13:02:58.235Z,30.22
2022-10-05T13:05:41.977Z,30.26
2022-10-05T13:08:06.933Z,29.98
2022-10-05T13:11:01.818Z,30.09
2022-10-05T13:13:48.472Z,29.84
2022-10-05T13:16:30.462Z,30.20
2022-10-05T13:18:58.167Z,31.09
2022-10-05T13:21:20.275Z,31.07
2022-10-05T13:25:33.618Z,31.35
2022-10-05T13:29:43.971Z,31.67
2022-10-05T13:32:15.028Z,31.58
2022-10-05T13:36:06.789Z,31.58
2022-10-05T13:38:52.901Z,31.26
2022-10-05T13:41:40.782Z,31.30
2022-10-05T13:44:15.638Z,31.65
2022-10-05T13:48:05.963Z,31.74
2022-10-05T13:53:50.554Z,31.91
2022-10-05T13:56:38.166Z,31.98
2022-10-05T14:00:57.532Z,31.39
2022-10-05T14:03:27.798Z,32.15
2022-10-05T14:06:13.525Z,31.87
2022-10-05T14:08:50.059Z,31.66
2022-10-05T14:11:24.752Z,31.86
2022-10-05T14:13:47.096Z,31.40
2022-10-05T14:16:24.476Z,31.52
2022-10-05T14:19:05.885Z,31.31
2022-10-05T14:21:43.802Z,31.40
2022-10-05T14:24:50.480Z,31.98
2022-10-05T14:27:23.817Z,31.57
2022-10-05T14:29:42.065Z,31.76
2022-10-05T14:32:15.106Z,31.68
2022-10-05T14:34:35.786Z,31.58
2022-10-05T14:37:20.791Z,31.79
2022-10-05T14:39:41.965Z,31.66
2022-10-05T14:42:00.688Z,31.84
2022-10-05T14:43:19.355Z,31.81
2022-10-05T14:45:58.077Z,32.07
2022-10-05T14:48:44.732Z,31.67
2022-10-05T14:51:26.179Z,30.00
2022-10-05T14:52:30.793Z,30.61
2022-10-05T14:55:13.439Z,30.27
2022-10-05T14:56:32.246Z,30.58
2022-10-05T14:59:18.338Z,31.02
2022-10-05T15:01:34.696Z,31.90
2022-10-05T15:04:14.918Z,32.10
2022-10-05T15:06:42.855Z,31.80
2022-10-05T15:07:49.060Z,32.14
2022-10-05T15:10:26.859Z,32.39
2022-10-05T15:13:18.624Z,31.38
2022-10-05T15:15:45.864Z,33.34
2022-10-05T15:17:01.575Z,33.80
2022-10-05T15:19:45.608Z,34.35
2022-10-05T15:22:54.199Z,34.40
2022-10-05T15:26:49.229Z,35.24
2022-10-05T15:28:14.216Z,35.11
2022-10-05T15:31:30.889Z,34.69
2022-10-05T15:34:13.313Z,35.28
2022-10-05T15:37:13.360Z,35.80
2022-10-05T15:38:25.296Z,35.74
2022-10-05T15:40:58.646Z,36.01
2022-10-05T15:43:21.316Z,35.71
2022-10-05T15:51:00.932Z,36.50
2022-10-05T15:52:16.883Z,36.67
2022-10-05T15:55:30.995Z,37.19
2022-10-05T15:58:09.670Z,36.88
2022-10-05T16:01:54.842Z,36.90
2022-10-05T16:03:16.908Z,36.87
2022-10-05T16:05:47.633Z,37.49
2022-10-05T16:10:51.555Z,38.10
2022-10-05T16:12:10.209Z,38.13
2022-10-05T16:14:56.199Z,38.57
2022-10-05T16:18:49.623Z,38.54
2022-10-05T16:20:21.069Z,38.61
2022-10-05T16:23:13.410Z,38.19
2022-10-05T16:30:54.711Z,39.03
2022-10-05T16:31:59.605Z,38.91
2022-10-05T16:34:48.522Z,38.71
2022-10-05T16:37:34.223Z,38.83
2022-10-05T16:40:08.636Z,38.92
2022-10-05T16:45:46.619Z,39.19
2022-10-05T16:48:26.339Z,39.02
2022-10-05T16:51:24.731Z,38.49
2022-10-05T16:53:47.068Z,38.51
2022-10-05T16:57:30.309Z,37.90
2022-10-05T17:00:25.439Z,37.89
2022-10-05T17:02:01.793Z,37.61
2022-10-05T17:04:28.801Z,37.74
2022-10-05T17:07:30.981Z,37.67
2022-10-05T17:08:49.960Z,37.89
2022-10-05T17:11:32.113Z,37.38
2022-10-05T17:14:16.828Z,37.56
2022-10-05T17:16:53.809Z,38.05
2022-10-05T17:18:27.154Z,38.29
2022-10-05T17:21:14.890Z,38.16
2022-10-05T17:24:12.853Z,37.96
2022-10-05T17:26:43.584Z,38.01
2022-10-05T17:29:32.467Z,38.06
2022-10-05T17:32:09.519Z,38.48
2022-10-05T17:36:18.095Z,38.50
2022-10-05T17:37:31.287Z,38.29
2022-10-05T17:39:58.162Z,37.81
2022-10-05T17:41:26.034Z,37.51
2022-10-05T17:42:33.090Z,37.51
2022-10-05T17:43:36.626Z,37.46
2022-10-05T17:45:54.794Z,37.66
2022-10-05T17:48:16.504Z,38.22
2022-10-05T17:50:57.577Z,38.28
2022-10-05T17:52:21.194Z,38.31
2022-10-05T17:55:01.408Z,37.65
2022-10-05T17:56:05.323Z,37.08
2022-10-05T17:58:27.444Z,36.81
2022-10-05T18:01:19.152Z,37.19
2022-10-05T18:02:37.050Z,37.65
2022-10-05T18:05:13.079Z,37.08
2022-10-05T18:07:42.292Z,37.08
2022-10-05T18:10:14.196Z,36.47
2022-10-05T18:13:00.214Z,36.92
2022-10-05T18:22:00.870Z,35.98
2022-10-05T18:23:07.891Z,36.44
2022-10-05T18:25:49.796Z,36.22
2022-10-05T18:27:13.311Z,36.17
2022-10-05T18:28:20.345Z,36.28
2022-10-05T18:31:39.597Z,36.17
2022-10-05T18:34:37.740Z,35.85
2022-10-05T18:37:37.817Z,35.81
2022-10-05T18:39:11.035Z,35.90
2022-10-05T18:41:58.422Z,36.26
2022-10-05T18:46:08.383Z,36.39
2022-10-05T18:47:18.426Z,36.26
2022-10-05T18:50:19.632Z,36.51
2022-10-05T18:52:56.461Z,36.41
2022-10-05T18:55:27.321Z,36.15
2022-10-05T18:58:07.770Z,36.08
2022-10-05T19:01:38.464Z,34.99
2022-10-05T19:04:25.188Z,36.59
2022-10-05T19:07:09.417Z,36.65
2022-10-05T19:08:31.778Z,36.77
2022-10-05T19:09:53.519Z,36.86
2022-10-05T19:13:45.341Z,36.87
2022-10-05T19:17:48.556Z,37.03
2022-10-05T19:20:57.448Z,37.15
2022-10-05T19:25:21.838Z,36.76
2022-10-05T19:26:51.585Z,36.66
2022-10-05T19:29:51.393Z,36.95
2022-10-05T19:32:45.358Z,37.59
2022-10-05T19:34:07.807Z,37.87
2022-10-05T19:35:17.733Z,37.84
2022-10-05T19:37:53.949Z,38.10
2022-10-05T19:40:34.001Z,37.96
2022-10-05T19:44:45.226Z,38.41
2022-10-05T19:46:10.818Z,38.20
2022-10-05T19:47:30.396Z,38.43
2022-10-05T19:49:58.121Z,38.18
2022-10-05T19:52:28.360Z,38.19
2022-10-05T19:54:49.595Z,37.95
2022-10-05T19:57:07.905Z,38.28
2022-10-05T19:58:29.244Z,38.11
2022-10-05T20:02:01.514Z,38.02
2022-10-05T20:03:20.868Z,37.68
2022-10-05T20:07:13.002Z,37.50
2022-10-05T20:09:50.574Z,37.77
2022-10-05T20:12:50.451Z,37.83
2022-10-05T20:15:19.883Z,37.59
2022-10-05T20:16:31.416Z,38.00
2022-10-05T20:18:47.899Z,37.20
2022-10-05T20:21:02.017Z,36.85
2022-10-05T20:22:32.129Z,36.78
2022-10-05T20:23:35.519Z,36.96
2022-10-05T20:26:01.804Z,37.01
2022-10-05T20:27:05.493Z,36.98
2022-10-05T20:29:20.091Z,36.85
2022-10-05T20:31:39.203Z,37.12
2022-10-05T20:32:42.759Z,37.01
2022-10-05T20:34:57.486Z,36.61
2022-10-05T20:37:14.648Z,36.93
2022-10-05T20:39:29.174Z,36.34
2022-10-05T20:41:44.742Z,36.03
2022-10-05T20:42:48.166Z,36.31
2022-10-05T20:45:03.839Z,36.52
2022-10-05T20:47:18.100Z,37.69
2022-10-05T20:48:21.517Z,37.63
2022-10-05T20:49:25.603Z,37.93
2022-10-05T20:51:39.963Z,37.81
2022-10-05T20:52:43.339Z,37.92
2022-10-05T20:53:46.877Z,37.88
2022-10-05T20:56:01.369Z,37.52
2022-10-05T20:57:05.456Z,37.59
2022-10-05T20:59:20.383Z,37.42
2022-10-05T21:01:34.816Z,37.61
2022-10-05T21:03:49.430Z,37.77
2022-10-05T21:06:03.915Z,37.83
2022-10-05T21:07:07.340Z,37.34
2022-10-05T21:08:10.830Z,36.74
2022-10-05T21:10:26.990Z,35.93
2022-10-05T21:12:41.203Z,35.59
2022-10-05T21:13:44.555Z,35.28
2022-10-05T21:15:58.880Z,34.67
2022-10-05T21:17:02.808Z,34.75
2022-10-05T21:18:06.421Z,34.66
2022-10-05T21:20:22.585Z,34.66
2022-10-05T21:21:25.981Z,34.67
2022-10-05T21:22:29.628Z,36.26
2022-10-05T21:23:33.984Z,36.52
2022-10-05T21:25:49.900Z,36.20
2022-10-05T21:28:04.261Z,36.73
2022-10-05T21:30:19.652Z,36.23
2022-10-05T21:32:34.041Z,35.30
2022-10-05T21:34:48.420Z,34.67
2022-10-05T21:37:02.918Z,34.78
2022-10-05T21:38:06.245Z,34.89
2022-10-05T21:39:10.059Z,34.78
2022-10-05T21:40:13.629Z,34.56
2022-10-05T21:42:28.662Z,34.23
2022-10-05T21:44:42.691Z,33.96
2022-10-05T21:46:57.614Z,35.57
2022-10-05T21:48:01.061Z,35.61
2022-10-05T21:49:08.238Z,35.74
2022-10-05T21:51:25.058Z,36.49
2022-10-05T21:53:43.375Z,36.46
2022-10-05T21:56:02.775Z,36.40
2022-10-05T21:57:04.380Z,36.47
2022-10-05T21:58:08.071Z,36.32
2022-10-05T22:00:25.570Z,36.55
2022-10-05T22:01:28.968Z,36.69
2022-10-05T22:02:32.541Z,36.36
2022-10-05T22:04:46.752Z,36.82
2022-10-05T22:07:00.876Z,36.45
2022-10-05T22:09:15.106Z,36.49
2022-10-05T22:10:18.573Z,36.90
2022-10-05T22:12:33.279Z,36.70
2022-10-05T22:13:48.518Z,36.73
2022-10-05T22:16:02.939Z,36.99
2022-10-05T22:18:27.283Z,37.41
2022-10-05T22:19:30.971Z,37.42
2022-10-05T22:21:45.954Z,37.53
2022-10-05T22:22:50.023Z,37.71
2022-10-05T22:25:05.120Z,37.54
2022-10-05T22:26:11.363Z,37.53
2022-10-05T22:28:27.878Z,37.78
2022-10-05T22:29:31.754Z,37.99
2022-10-05T22:31:47.398Z,37.52
2022-10-05T22:32:50.754Z,37.35
2022-10-05T22:35:09.231Z,37.44
2022-10-05T22:37:22.748Z,37.74
2022-10-05T22:38:27.034Z,37.73
2022-10-05T22:40:41.534Z,37.45
2022-10-05T22:41:44.970Z,37.48
2022-10-05T22:42:48.473Z,37.30
2022-10-05T22:45:03.232Z,37.09
2022-10-05T22:46:08.553Z,37.22
2022-10-05T22:48:22.845Z,37.73
2022-10-05T22:50:37.389Z,37.62
2022-10-05T22:51:40.917Z,37.75
2022-10-05T22:52:44.386Z,37.47
2022-10-05T22:54:58.777Z,37.12
2022-10-05T22:56:10.915Z,37.94
2022-10-05T22:57:14.691Z,37.84
2022-10-05T22:59:28.915Z,37.24
2022-10-05T23:00:56.419Z,36.81
2022-10-05T23:02:48.847Z,37.01
2022-10-05T23:03:52.145Z,37.06
2022-10-05T23:04:55.672Z,37.26
2022-10-05T23:07:12.855Z,37.21
2022-10-05T23:09:27.088Z,37.07
2022-10-05T23:11:41.460Z,37.13
2022-10-05T23:13:59.519Z,36.69
2022-10-05T23:16:18.327Z,36.69
2022-10-05T23:17:21.770Z,36.71
2022-10-05T23:18:25.687Z,36.76
2022-10-05T23:20:40.414Z,36.90
2022-10-05T23:21:44.385Z,36.89
2022-10-05T23:22:47.909Z,36.92
2022-10-05T23:25:03.804Z,37.15
2022-10-05T23:27:20.814Z,37.26
2022-10-05T23:28:24.312Z,37.61
2022-10-05T23:31:03.875Z,37.33
2022-10-05T23:33:18.519Z,37.51
2022-10-05T23:34:21.878Z,37.64
2022-10-05T23:36:36.024Z,37.39
2022-10-05T23:38:52.808Z,37.78
2022-10-05T23:39:56.212Z,37.49
2022-10-05T23:42:16.958Z,37.58
2022-10-05T23:43:20.238Z,37.66
2022-10-05T23:45:35.454Z,37.81
2022-10-05T23:46:38.893Z,37.67
2022-10-05T23:48:53.257Z,37.27
2022-10-05T23:51:10.465Z,37.07
2022-10-05T23:52:13.804Z,36.78
2022-10-05T23:54:29.000Z,37.08
2022-10-05T23:55:32.555Z,37.20
2022-10-05T23:57:47.229Z,37.40
